Bemis Heights, New York
Current Conditions -  °F | °C
As of 4:51 AM on Friday 19 Dec 2014 (Local Time) from KALB Reporting Station
Overcast Overcast  
Wind Chill: 23°   Ceiling: 4600
Heat Index: 32°   Visibility: 10mi
Dew Point: 21°   Wind: 12mph
Humidity: 64%   Direction: 310°NW
Pressure: 29.96"   Gusts: 21mph
Location:  43.0236°N, 73.676°W
Report Text: KALB 190951Z 31010G18KT 10SM OVC046 00/M06 A2996 RMK AO2 SLP150 T00001061
Loading
Personal Weather Stations






























Interactive Weather Map New forecast layout! Learn more

10-Day Weather Forecast

Advertisements
Track Severe Weather on mobile